首页
METAR-TAF:

METAR-TAF

机场 :

拉勒米, 怀俄明州, 美国

纬度: 41-18-43N, 经度: 105-40-30W, 海拔: 2218米

当前天气观测

该预报发布于37分钟前的08:53 UTC
风速14节,风向,有时为23节阵风
温度 6°C
湿度 56%
气压 1023 hPa
能見度: 16.1公里
天空无云

METAR: KLAR 190853Z AUTO 09014G23KT 10SM CLR 06/M02 A3021 RMK AO2 SLP147 T00611022 58008 $

时间: 03:30 (09:30 UTC)

预报

该预报发布于4小时和10分钟前的05:20 UTC
预报有效从19日的 06点(UTC)到 20日的 06点(UTC)
风速10节,风向东转东北
能見度: 10公里
散云层高于8000英尺
从 19日的 0800点(UTC)
风速15节,风向东转东南
能見度: 10公里
多云层高于10000英尺
从 19日的 1500点(UTC)
风速28节,风向南转南东,有时为38节阵风
能見度: 10公里
多云层高于5000英尺
从 20日的 0000点(UTC)
风速20节,风向东南
能見度: 10公里
多云层高于3500英尺

TAF: KLAR 190520Z 1906/2006 07010KT P6SM SCT080 FM190800 12015KT P6SM BKN100 FM191500 15028G38KT P6SM BKN050 FM200000 14020KT P6SM BKN035

超过4000个机场的气象观测和天气预报(METAR&TAF报告)。

可查询的气象台以黄色和红色小点在地图上表示。

将鼠标移到小点上方,可查看气象台名称。

然后点击查看天气观测和预报。

如需切换地图:点击带黑十字的绿色按钮放大地图;点击带横线的绿色按钮缩小地图;或者点击绿色箭头查看邻近地区的地图。


METAR-TAF: